createdAt,value
2022-07-31T00:00:15.438Z,23.10
2022-07-31T00:02:42.451Z,23.10
2022-07-31T00:05:09.852Z,23.00
2022-07-31T00:07:37.349Z,23.00
2022-07-31T00:10:06.549Z,23.00
2022-07-31T00:12:34.992Z,22.90
2022-07-31T00:15:04.279Z,22.90
2022-07-31T00:17:32.859Z,22.80
2022-07-31T00:19:59.688Z,22.80
2022-07-31T00:22:26.661Z,22.80
2022-07-31T00:24:53.482Z,22.80
2022-07-31T00:27:21.010Z,22.70
2022-07-31T00:29:48.474Z,22.70
2022-07-31T00:32:15.688Z,22.70
2022-07-31T00:34:42.627Z,22.60
2022-07-31T00:37:10.157Z,22.70
2022-07-31T00:39:38.567Z,22.60
2022-07-31T00:42:06.081Z,22.50
2022-07-31T00:44:32.951Z,22.50
2022-07-31T00:47:01.771Z,22.50
2022-07-31T00:49:37.779Z,22.50
2022-07-31T00:52:06.509Z,22.50
2022-07-31T00:54:34.529Z,22.40
2022-07-31T00:57:02.405Z,22.40
2022-07-31T00:59:30.578Z,22.30
2022-07-31T01:01:59.210Z,22.30
2022-07-31T01:04:27.349Z,22.30
2022-07-31T01:06:55.456Z,22.30
2022-07-31T01:09:22.787Z,22.20
2022-07-31T01:12:07.293Z,22.30
2022-07-31T01:14:47.783Z,22.20
2022-07-31T01:17:17.729Z,22.80
2022-07-31T01:19:47.705Z,22.20
2022-07-31T01:22:55.344Z,22.10
2022-07-31T01:26:11.112Z,22.10
2022-07-31T01:28:56.222Z,22.10
2022-07-31T01:32:10.364Z,22.00
2022-07-31T01:35:01.830Z,22.10
2022-07-31T01:37:36.401Z,22.00
2022-07-31T01:40:10.072Z,21.90
2022-07-31T01:42:40.308Z,21.90
2022-07-31T01:45:10.929Z,21.90
2022-07-31T01:47:39.858Z,21.90
2022-07-31T01:50:09.497Z,23.50
2022-07-31T01:52:59.620Z,21.80
2022-07-31T01:55:28.890Z,22.80
2022-07-31T01:57:56.733Z,21.80
2022-07-31T02:00:34.402Z,21.80
2022-07-31T02:03:09.968Z,21.80
2022-07-31T02:05:42.110Z,21.70
2022-07-31T02:08:11.376Z,21.70
2022-07-31T02:10:40.493Z,21.70
2022-07-31T02:13:08.040Z,21.70
2022-07-31T02:15:35.983Z,21.70
2022-07-31T02:18:04.281Z,21.70
2022-07-31T02:20:33.272Z,21.70
2022-07-31T02:23:01.517Z,21.60
2022-07-31T02:25:29.632Z,21.60
2022-07-31T02:28:01.042Z,21.60
2022-07-31T02:30:38.318Z,21.60
2022-07-31T02:33:12.850Z,21.60
2022-07-31T02:35:44.277Z,21.50
2022-07-31T02:38:22.145Z,21.60
2022-07-31T02:40:55.132Z,21.50
2022-07-31T02:43:22.668Z,21.40
2022-07-31T02:45:49.700Z,21.50
2022-07-31T02:48:17.491Z,21.40
2022-07-31T02:50:45.236Z,21.40
2022-07-31T02:53:12.478Z,21.40
2022-07-31T02:55:40.544Z,21.40
2022-07-31T02:58:08.977Z,21.30
2022-07-31T03:00:35.850Z,21.40
2022-07-31T03:03:03.124Z,21.30
2022-07-31T03:05:31.329Z,21.30
2022-07-31T03:07:58.433Z,21.30
2022-07-31T03:10:25.605Z,21.30
2022-07-31T03:12:54.935Z,21.30
2022-07-31T03:15:26.851Z,21.30
2022-07-31T03:17:54.939Z,21.20
2022-07-31T03:20:22.423Z,21.20
2022-07-31T03:22:50.386Z,21.20
2022-07-31T03:25:20.276Z,21.20
2022-07-31T03:27:56.727Z,21.20
2022-07-31T03:30:25.460Z,21.30
2022-07-31T03:32:54.500Z,21.20
2022-07-31T03:35:22.508Z,21.30
2022-07-31T03:37:49.686Z,21.20
2022-07-31T03:40:16.471Z,21.20
2022-07-31T03:42:44.501Z,21.20
2022-07-31T03:45:14.238Z,21.20
2022-07-31T03:47:41.245Z,21.10
2022-07-31T03:50:09.255Z,21.10
2022-07-31T03:52:37.014Z,21.20
2022-07-31T03:55:04.401Z,21.10
2022-07-31T03:57:34.307Z,21.10
2022-07-31T04:00:03.276Z,21.10
2022-07-31T04:02:31.787Z,21.10
2022-07-31T04:04:59.856Z,21.10
2022-07-31T04:07:27.600Z,21.10
2022-07-31T04:09:54.734Z,21.10
2022-07-31T04:12:21.621Z,22.60
2022-07-31T04:14:48.944Z,21.20
2022-07-31T04:17:15.769Z,21.10
2022-07-31T04:19:42.633Z,21.10
2022-07-31T04:22:09.696Z,21.20
2022-07-31T04:24:36.616Z,21.20
2022-07-31T04:27:08.184Z,21.10
2022-07-31T04:29:38.031Z,21.20
2022-07-31T04:32:05.451Z,21.30
2022-07-31T04:34:32.650Z,21.30
2022-07-31T04:36:59.526Z,21.30
2022-07-31T04:39:26.352Z,21.40
2022-07-31T04:41:53.379Z,21.40
2022-07-31T04:44:20.947Z,21.40
2022-07-31T04:46:48.019Z,21.50
2022-07-31T04:49:15.244Z,21.60
2022-07-31T04:51:44.554Z,21.50
2022-07-31T04:54:11.727Z,21.60
2022-07-31T04:56:44.767Z,21.60
2022-07-31T04:59:15.036Z,21.60
2022-07-31T05:01:43.586Z,21.70
2022-07-31T05:04:11.571Z,21.80
2022-07-31T05:06:48.250Z,21.80
2022-07-31T05:09:19.678Z,21.80
2022-07-31T05:11:52.882Z,21.90
2022-07-31T05:14:21.601Z,21.90
2022-07-31T05:16:48.934Z,22.00
2022-07-31T05:19:16.552Z,21.90
2022-07-31T05:21:46.928Z,22.10
2022-07-31T05:24:32.604Z,22.10
2022-07-31T05:27:02.628Z,22.10
2022-07-31T05:29:30.797Z,22.20
2022-07-31T05:32:09.813Z,22.40
2022-07-31T05:34:36.990Z,22.40
2022-07-31T05:37:03.882Z,22.80
2022-07-31T05:39:31.297Z,23.00
2022-07-31T05:41:58.160Z,23.20
2022-07-31T05:44:24.980Z,23.40
2022-07-31T05:49:19.500Z,23.90
2022-07-31T05:51:46.964Z,24.20
2022-07-31T05:54:14.655Z,24.40
2022-07-31T05:56:42.859Z,24.60
2022-07-31T05:59:09.916Z,24.80
2022-07-31T06:01:38.791Z,24.90
2022-07-31T06:04:05.697Z,25.10
2022-07-31T06:06:32.437Z,25.20
2022-07-31T06:09:04.116Z,25.30
2022-07-31T06:11:31.723Z,25.40
2022-07-31T06:13:58.557Z,25.50
2022-07-31T06:16:25.366Z,25.60
2022-07-31T06:18:52.541Z,25.60
2022-07-31T06:23:45.081Z,25.70
2022-07-31T06:26:12.271Z,25.70
2022-07-31T06:28:48.084Z,25.60
2022-07-31T06:31:25.451Z,25.80
2022-07-31T06:33:52.719Z,25.90
2022-07-31T06:36:19.788Z,25.90
2022-07-31T06:38:46.612Z,25.90
2022-07-31T06:41:32.691Z,26.00
2022-07-31T06:43:59.531Z,25.90
2022-07-31T06:46:26.369Z,26.10
2022-07-31T06:48:53.379Z,26.10
2022-07-31T06:51:30.761Z,26.20
2022-07-31T06:54:00.356Z,26.10
2022-07-31T06:56:28.047Z,26.20
2022-07-31T06:58:55.330Z,26.30
2022-07-31T07:01:22.296Z,26.40
2022-07-31T07:03:50.490Z,26.30
2022-07-31T07:06:18.101Z,26.30
2022-07-31T07:08:45.068Z,26.30
2022-07-31T07:11:12.519Z,26.30
2022-07-31T07:13:45.695Z,26.40
2022-07-31T07:16:15.198Z,26.50
2022-07-31T07:18:43.231Z,26.40
2022-07-31T07:21:10.904Z,26.40
2022-07-31T07:23:37.998Z,26.40
2022-07-31T07:26:05.891Z,26.40
2022-07-31T07:28:34.155Z,26.50
2022-07-31T07:31:02.640Z,26.40
2022-07-31T07:33:39.738Z,26.50
2022-07-31T07:36:07.363Z,26.30
2022-07-31T07:38:34.161Z,26.40
2022-07-31T07:41:02.605Z,26.30
2022-07-31T07:43:29.481Z,26.30
2022-07-31T07:45:56.300Z,26.30
2022-07-31T07:48:23.132Z,26.30
2022-07-31T07:50:49.970Z,26.30
2022-07-31T07:53:16.768Z,26.30
2022-07-31T07:55:43.661Z,26.30
2022-07-31T07:58:12.150Z,26.30
2022-07-31T08:00:39.940Z,26.30
2022-07-31T08:03:49.497Z,26.30
2022-07-31T08:05:54.951Z,26.30
2022-07-31T08:08:21.810Z,26.30
2022-07-31T08:10:48.741Z,26.30
2022-07-31T08:13:15.578Z,26.30
2022-07-31T08:15:42.402Z,26.30
2022-07-31T08:18:09.241Z,26.40
2022-07-31T08:20:38.162Z,26.40
2022-07-31T08:23:04.954Z,26.40
2022-07-31T08:25:32.105Z,26.40
2022-07-31T08:27:59.105Z,26.50
2022-07-31T08:30:30.901Z,26.50
2022-07-31T08:32:58.182Z,26.60
2022-07-31T08:35:26.167Z,26.70
2022-07-31T08:38:03.402Z,26.70
2022-07-31T08:40:33.549Z,26.70
2022-07-31T08:43:30.996Z,26.80
2022-07-31T08:46:02.953Z,26.80
2022-07-31T08:48:33.321Z,26.80
2022-07-31T08:51:04.178Z,26.80
2022-07-31T08:53:34.706Z,26.80
2022-07-31T08:56:03.276Z,26.90
2022-07-31T08:58:30.190Z,27.00
2022-07-31T09:00:57.381Z,27.10
2022-07-31T09:03:24.706Z,27.10
2022-07-31T09:05:51.578Z,27.10
2022-07-31T09:08:18.566Z,27.20
2022-07-31T09:10:49.938Z,27.30
2022-07-31T09:13:19.984Z,27.30
2022-07-31T09:15:46.981Z,27.40
2022-07-31T09:18:22.226Z,27.40
2022-07-31T09:21:00.658Z,27.50
2022-07-31T09:23:30.379Z,27.50
2022-07-31T09:26:00.666Z,27.50
2022-07-31T09:28:39.078Z,27.50
2022-07-31T09:31:08.476Z,27.70
2022-07-31T09:33:42.360Z,27.70
2022-07-31T09:36:14.106Z,27.70
2022-07-31T09:38:43.429Z,27.80
2022-07-31T09:41:56.282Z,27.80
2022-07-31T09:44:10.506Z,27.80
2022-07-31T09:46:43.542Z,27.80
2022-07-31T09:49:10.832Z,27.90
2022-07-31T09:51:43.364Z,27.90
2022-07-31T09:54:25.957Z,28.00
2022-07-31T09:56:53.173Z,28.00
2022-07-31T09:59:20.203Z,28.10
2022-07-31T10:01:49.270Z,28.10
2022-07-31T10:04:21.449Z,28.10
2022-07-31T10:06:50.744Z,28.20
2022-07-31T10:09:20.956Z,28.30
2022-07-31T10:11:50.252Z,28.20
2022-07-31T10:14:29.053Z,28.20
2022-07-31T10:16:59.995Z,28.20
2022-07-31T10:19:32.058Z,28.30
2022-07-31T10:22:04.507Z,28.30
2022-07-31T10:24:43.292Z,28.40
2022-07-31T10:27:12.417Z,28.50
2022-07-31T10:29:40.102Z,28.50
2022-07-31T10:32:09.070Z,28.60
2022-07-31T10:34:37.078Z,28.70
2022-07-31T10:37:15.421Z,28.70
2022-07-31T10:40:06.786Z,28.80
2022-07-31T10:43:15.558Z,28.80
2022-07-31T10:45:51.986Z,28.90
2022-07-31T10:48:20.226Z,29.00
2022-07-31T10:50:48.186Z,29.00
2022-07-31T10:53:18.590Z,29.10
2022-07-31T10:55:45.518Z,29.10
2022-07-31T10:58:16.456Z,29.20
2022-07-31T11:00:43.891Z,29.20
2022-07-31T11:03:20.666Z,29.30
2022-07-31T11:06:01.746Z,29.40
2022-07-31T11:08:45.289Z,29.40
2022-07-31T11:11:14.002Z,29.50
2022-07-31T11:13:55.385Z,29.60
2022-07-31T11:16:22.614Z,29.70
2022-07-31T11:19:10.137Z,29.70
2022-07-31T11:21:40.796Z,29.80
2022-07-31T11:24:21.783Z,29.90
2022-07-31T11:26:58.937Z,30.00
2022-07-31T11:29:58.943Z,30.00
2022-07-31T11:32:25.491Z,30.10
2022-07-31T11:34:56.024Z,30.30
2022-07-31T11:37:56.661Z,30.30
2022-07-31T11:40:22.436Z,30.40
2022-07-31T11:43:24.250Z,30.40
2022-07-31T11:45:51.367Z,30.50
2022-07-31T11:48:20.769Z,30.50
2022-07-31T11:50:49.947Z,30.60
2022-07-31T11:53:18.699Z,30.60
2022-07-31T11:55:57.200Z,30.70
2022-07-31T11:58:27.934Z,30.80
2022-07-31T12:00:58.500Z,30.80
2022-07-31T12:03:38.079Z,30.80
2022-07-31T12:06:11.175Z,30.80
2022-07-31T12:08:39.509Z,30.90
2022-07-31T12:11:09.457Z,30.90
2022-07-31T12:13:38.544Z,30.90
2022-07-31T12:16:10.785Z,31.00
2022-07-31T12:18:58.714Z,30.90
2022-07-31T12:21:40.793Z,31.00
2022-07-31T12:24:13.663Z,31.00
2022-07-31T12:26:50.593Z,30.90
2022-07-31T12:29:17.966Z,30.90
2022-07-31T12:31:50.139Z,30.90
2022-07-31T12:34:41.154Z,30.90
2022-07-31T12:37:14.849Z,30.90
2022-07-31T12:39:59.268Z,30.80
2022-07-31T12:42:41.581Z,30.80
2022-07-31T12:45:20.178Z,30.70
2022-07-31T12:47:52.123Z,30.60
2022-07-31T12:50:20.801Z,30.50
2022-07-31T12:52:47.679Z,30.50
2022-07-31T12:55:17.155Z,30.40
2022-07-31T12:57:51.142Z,30.30
2022-07-31T13:00:24.025Z,30.30
2022-07-31T13:02:55.867Z,30.30
2022-07-31T13:05:24.574Z,30.30
2022-07-31T13:07:52.282Z,30.00
2022-07-31T13:10:23.921Z,30.30
2022-07-31T13:12:52.774Z,30.30
2022-07-31T13:15:30.169Z,30.40
2022-07-31T13:18:05.198Z,30.40
2022-07-31T13:20:32.316Z,30.50
2022-07-31T13:22:59.509Z,30.50
2022-07-31T13:25:28.792Z,30.60
2022-07-31T13:27:57.020Z,30.70
2022-07-31T13:30:23.862Z,30.80
2022-07-31T13:32:50.730Z,30.90
2022-07-31T13:35:23.981Z,30.90
2022-07-31T13:37:55.024Z,31.10
2022-07-31T13:40:42.044Z,31.10
2022-07-31T13:43:09.508Z,31.20
2022-07-31T13:45:36.661Z,31.20
2022-07-31T13:48:08.972Z,31.20
2022-07-31T13:50:40.306Z,31.20
2022-07-31T13:53:07.987Z,31.30
2022-07-31T13:55:35.420Z,31.30
2022-07-31T13:58:02.367Z,31.30
2022-07-31T14:00:30.335Z,31.30
2022-07-31T14:02:58.231Z,31.10
2022-07-31T14:05:27.645Z,31.20
2022-07-31T14:07:55.844Z,31.30
2022-07-31T14:10:23.795Z,31.20
2022-07-31T14:12:51.385Z,31.30
2022-07-31T14:15:18.403Z,31.40
2022-07-31T14:17:45.987Z,31.40
2022-07-31T14:20:13.783Z,31.40
2022-07-31T14:22:42.189Z,31.50
2022-07-31T14:25:10.374Z,31.50
2022-07-31T14:27:38.731Z,31.50
2022-07-31T14:30:09.379Z,31.60
2022-07-31T14:32:36.592Z,31.60
2022-07-31T14:35:08.102Z,31.60
2022-07-31T14:37:35.428Z,31.70
2022-07-31T14:40:02.687Z,31.70
2022-07-31T14:42:29.698Z,31.70
2022-07-31T14:44:58.782Z,31.80
2022-07-31T14:47:26.057Z,31.80
2022-07-31T14:50:09.606Z,31.70
2022-07-31T14:52:39.701Z,31.70
2022-07-31T14:55:07.362Z,31.70
2022-07-31T14:57:34.500Z,31.70
2022-07-31T15:00:01.503Z,31.70
2022-07-31T15:02:28.511Z,31.70
2022-07-31T15:04:55.628Z,31.60
2022-07-31T15:07:43.947Z,31.60
2022-07-31T15:10:11.408Z,31.70
2022-07-31T15:12:38.889Z,31.70
2022-07-31T15:15:07.683Z,31.70
2022-07-31T15:17:34.631Z,31.70
2022-07-31T15:20:01.683Z,31.70
2022-07-31T15:22:28.957Z,31.80
2022-07-31T15:24:55.823Z,31.80
2022-07-31T15:27:22.773Z,31.80
2022-07-31T15:30:04.615Z,31.90
2022-07-31T15:32:40.012Z,31.90
2022-07-31T15:35:11.305Z,31.90
2022-07-31T15:37:40.630Z,32.00
2022-07-31T15:40:10.923Z,32.10
2022-07-31T15:42:41.657Z,32.10
2022-07-31T15:45:13.730Z,32.20
2022-07-31T15:47:42.128Z,32.20
2022-07-31T15:50:13.131Z,32.10
2022-07-31T15:52:41.492Z,32.20
2022-07-31T15:55:10.077Z,32.20
2022-07-31T15:57:37.034Z,32.10
2022-07-31T16:00:06.842Z,32.10
2022-07-31T16:02:33.684Z,32.10
2022-07-31T16:05:11.244Z,32.10
2022-07-31T16:08:29.337Z,32.00
2022-07-31T16:10:34.251Z,32.00
2022-07-31T16:13:01.375Z,32.00
2022-07-31T16:15:28.241Z,31.90
2022-07-31T16:17:55.281Z,31.90
2022-07-31T16:20:26.986Z,31.90
2022-07-31T16:23:01.610Z,31.90
2022-07-31T16:25:32.150Z,31.90
2022-07-31T16:28:04.043Z,31.80
2022-07-31T16:30:32.126Z,31.90
2022-07-31T16:32:59.100Z,31.90
2022-07-31T16:35:26.356Z,31.80
2022-07-31T16:37:54.996Z,31.80
2022-07-31T16:40:30.204Z,31.70
2022-07-31T16:43:49.365Z,31.70
2022-07-31T16:45:55.300Z,31.80
2022-07-31T16:48:22.647Z,31.80
2022-07-31T16:50:54.448Z,31.80
2022-07-31T16:54:10.483Z,31.70
2022-07-31T16:56:15.636Z,31.80
2022-07-31T16:58:43.974Z,31.80
2022-07-31T17:01:56.944Z,31.70
2022-07-31T17:04:03.510Z,31.60
2022-07-31T17:06:36.057Z,31.60
2022-07-31T17:09:17.509Z,31.60
2022-07-31T17:11:51.333Z,31.60
2022-07-31T17:14:19.643Z,31.60
2022-07-31T17:16:49.542Z,31.70
2022-07-31T17:19:41.203Z,31.70
2022-07-31T17:22:11.349Z,31.70
2022-07-31T17:24:39.454Z,31.60
2022-07-31T17:27:08.926Z,31.60
2022-07-31T17:29:37.948Z,31.60
2022-07-31T17:32:05.894Z,31.60
2022-07-31T17:34:33.534Z,31.60
2022-07-31T17:37:00.348Z,31.50
2022-07-31T17:39:30.797Z,31.50
2022-07-31T17:41:59.304Z,31.50
2022-07-31T17:44:26.234Z,31.40
2022-07-31T17:46:54.412Z,31.40
2022-07-31T17:49:21.488Z,31.40
2022-07-31T17:51:58.740Z,31.30
2022-07-31T17:54:31.695Z,31.30
2022-07-31T17:56:59.913Z,31.20
2022-07-31T17:59:27.647Z,31.10
2022-07-31T18:02:00.167Z,31.00
2022-07-31T18:04:29.493Z,31.00
2022-07-31T18:06:58.117Z,30.90
2022-07-31T18:09:25.649Z,30.90
2022-07-31T18:11:54.458Z,30.80
2022-07-31T18:14:24.507Z,30.80
2022-07-31T18:16:52.533Z,30.60
2022-07-31T18:19:21.339Z,30.60
2022-07-31T18:21:48.559Z,30.50
2022-07-31T18:24:15.538Z,30.50
2022-07-31T18:26:42.560Z,30.50
2022-07-31T18:29:09.326Z,30.40
2022-07-31T18:31:36.416Z,30.30
2022-07-31T18:34:05.238Z,30.30
2022-07-31T18:36:35.446Z,30.30
2022-07-31T18:39:03.990Z,30.20
2022-07-31T18:41:31.555Z,30.20
2022-07-31T18:43:58.437Z,30.20
2022-07-31T18:46:26.217Z,30.10
2022-07-31T18:48:55.768Z,30.00
2022-07-31T18:51:23.913Z,30.00
2022-07-31T18:53:51.912Z,29.90
2022-07-31T18:56:25.560Z,29.90
2022-07-31T18:58:54.292Z,29.80
2022-07-31T19:01:22.384Z,29.70
2022-07-31T19:03:50.050Z,29.80
2022-07-31T19:06:17.528Z,29.80
2022-07-31T19:08:44.675Z,29.70
2022-07-31T19:11:12.259Z,29.70
2022-07-31T19:13:39.113Z,29.70
2022-07-31T19:16:06.711Z,29.60
2022-07-31T19:18:34.127Z,29.60
2022-07-31T19:21:22.670Z,29.60
2022-07-31T19:23:49.094Z,29.50
2022-07-31T19:26:16.353Z,29.50
2022-07-31T19:28:43.520Z,29.40
2022-07-31T19:31:13.154Z,29.40
2022-07-31T19:33:40.843Z,29.40
2022-07-31T19:36:08.146Z,29.30
2022-07-31T19:38:38.399Z,29.30
2022-07-31T19:41:05.423Z,29.30
2022-07-31T19:43:33.345Z,29.30
2022-07-31T19:46:11.592Z,29.30
2022-07-31T19:48:46.070Z,29.20
2022-07-31T19:51:15.859Z,29.20
2022-07-31T19:53:44.522Z,29.20
2022-07-31T19:56:16.872Z,29.20
2022-07-31T19:58:47.170Z,29.10
2022-07-31T20:01:14.487Z,29.10
2022-07-31T20:03:41.539Z,29.10
2022-07-31T20:06:08.528Z,29.10
2022-07-31T20:08:35.589Z,29.10
2022-07-31T20:11:04.451Z,29.10
2022-07-31T20:13:33.736Z,29.00
2022-07-31T20:16:01.479Z,29.00
2022-07-31T20:18:29.224Z,29.00
2022-07-31T20:21:07.427Z,29.00
2022-07-31T20:23:37.274Z,28.90
2022-07-31T20:26:10.016Z,28.90
2022-07-31T20:28:40.230Z,28.90
2022-07-31T20:31:15.785Z,29.00
2022-07-31T20:33:56.515Z,28.80
2022-07-31T20:36:26.053Z,28.80
2022-07-31T20:38:52.941Z,28.70
2022-07-31T20:41:20.005Z,28.70
2022-07-31T20:43:46.971Z,28.60
2022-07-31T20:46:15.742Z,28.70
2022-07-31T20:48:44.758Z,28.60
2022-07-31T20:51:20.375Z,28.60
2022-07-31T20:53:48.087Z,28.50
2022-07-31T20:56:15.290Z,28.50
2022-07-31T20:58:42.616Z,28.50
2022-07-31T21:01:09.607Z,28.50
2022-07-31T21:03:37.513Z,28.40
2022-07-31T21:06:05.141Z,28.50
2022-07-31T21:08:31.977Z,28.40
2022-07-31T21:11:01.018Z,28.40
2022-07-31T21:13:28.101Z,28.40
2022-07-31T21:15:54.939Z,28.30
2022-07-31T21:18:22.269Z,28.30
2022-07-31T21:20:53.474Z,28.30
2022-07-31T21:23:26.094Z,28.30
2022-07-31T21:25:57.106Z,28.30
2022-07-31T21:28:27.558Z,28.30
2022-07-31T21:30:56.237Z,28.20
2022-07-31T21:33:26.373Z,27.50
2022-07-31T21:35:55.030Z,28.20
2022-07-31T21:38:22.841Z,28.20
2022-07-31T21:40:50.413Z,28.10
2022-07-31T21:43:22.181Z,28.10
2022-07-31T21:45:57.607Z,28.00
2022-07-31T21:48:30.219Z,28.00
2022-07-31T21:50:58.401Z,28.00
2022-07-31T21:53:25.711Z,28.00
2022-07-31T21:55:52.694Z,27.90
2022-07-31T21:58:20.565Z,27.80
2022-07-31T22:00:47.709Z,27.70
2022-07-31T22:03:14.729Z,27.80
2022-07-31T22:06:00.106Z,27.80
2022-07-31T22:08:27.083Z,27.60
2022-07-31T22:10:54.029Z,27.70
2022-07-31T22:13:21.334Z,27.70
2022-07-31T22:15:58.072Z,27.60
2022-07-31T22:18:30.006Z,27.60
2022-07-31T22:20:58.336Z,27.60
2022-07-31T22:23:27.698Z,27.60
2022-07-31T22:25:55.175Z,27.60
2022-07-31T22:28:23.913Z,27.60
2022-07-31T22:30:52.254Z,27.50
2022-07-31T22:33:20.552Z,27.50
2022-07-31T22:35:58.997Z,27.50
2022-07-31T22:38:29.233Z,27.50
2022-07-31T22:40:56.419Z,27.50
2022-07-31T22:44:09.405Z,27.40
2022-07-31T22:46:13.210Z,27.40
2022-07-31T22:48:40.863Z,27.40
2022-07-31T22:51:12.760Z,27.30
2022-07-31T22:53:43.240Z,27.30
2022-07-31T22:56:10.056Z,27.30
2022-07-31T22:58:37.026Z,27.30
2022-07-31T23:01:05.266Z,27.20
2022-07-31T23:03:32.435Z,27.10
2022-07-31T23:06:02.723Z,27.00
2022-07-31T23:08:52.027Z,26.90
2022-07-31T23:11:25.376Z,26.80
2022-07-31T23:13:52.920Z,26.70
2022-07-31T23:16:20.642Z,26.70
2022-07-31T23:18:48.770Z,26.60
2022-07-31T23:21:16.854Z,26.50
2022-07-31T23:23:48.853Z,26.30
2022-07-31T23:26:21.009Z,26.30
2022-07-31T23:28:48.318Z,26.20
2022-07-31T23:31:15.217Z,26.10
2022-07-31T23:33:42.763Z,26.00
2022-07-31T23:36:09.608Z,26.00
2022-07-31T23:38:36.591Z,25.90
2022-07-31T23:41:03.481Z,25.90
2022-07-31T23:43:30.741Z,25.80
2022-07-31T23:45:57.740Z,25.60
2022-07-31T23:48:24.994Z,25.50
2022-07-31T23:50:57.766Z,25.50
2022-07-31T23:53:24.748Z,25.40
2022-07-31T23:55:51.753Z,25.40
2022-07-31T23:58:18.534Z,25.30
